sensor_id;sensor_type;location;lat;lon;timestamp;temperature;humidity
68865;DHT22;55898;52.196;4.420;2022-07-10T00:00:38;18.44;57.11
68865;DHT22;55898;52.196;4.420;2022-07-10T00:03:04;18.43;57.29
68865;DHT22;55898;52.196;4.420;2022-07-10T00:05:31;18.41;56.78
68865;DHT22;55898;52.196;4.420;2022-07-10T00:07:57;18.40;57.26
68865;DHT22;55898;52.196;4.420;2022-07-10T00:10:23;18.38;57.15
68865;DHT22;55898;52.196;4.420;2022-07-10T00:12:51;18.40;57.65
68865;DHT22;55898;52.196;4.420;2022-07-10T00:15:18;18.37;57.35
68865;DHT22;55898;52.196;4.420;2022-07-10T00:17:44;18.36;57.41
68865;DHT22;55898;52.196;4.420;2022-07-10T00:20:11;18.32;57.47
68865;DHT22;55898;52.196;4.420;2022-07-10T00:22:38;18.26;57.83
68865;DHT22;55898;52.196;4.420;2022-07-10T00:25:04;18.29;57.71
68865;DHT22;55898;52.196;4.420;2022-07-10T00:27:31;18.26;58.72
68865;DHT22;55898;52.196;4.420;2022-07-10T00:29:56;18.27;57.75
68865;DHT22;55898;52.196;4.420;2022-07-10T00:32:22;18.20;57.64
68865;DHT22;55898;52.196;4.420;2022-07-10T00:34:48;18.22;56.92
68865;DHT22;55898;52.196;4.420;2022-07-10T00:37:13;18.20;57.76
68865;DHT22;55898;52.196;4.420;2022-07-10T00:39:39;18.16;58.07
68865;DHT22;55898;52.196;4.420;2022-07-10T00:42:10;18.14;58.51
68865;DHT22;55898;52.196;4.420;2022-07-10T00:44:36;18.16;58.72
68865;DHT22;55898;52.196;4.420;2022-07-10T00:47:06;18.17;58.82
68865;DHT22;55898;52.196;4.420;2022-07-10T00:49:35;18.14;58.34
68865;DHT22;55898;52.196;4.420;2022-07-10T00:52:04;18.12;59.21
68865;DHT22;55898;52.196;4.420;2022-07-10T00:54:32;18.06;59.20
68865;DHT22;55898;52.196;4.420;2022-07-10T00:56:59;18.03;59.14
68865;DHT22;55898;52.196;4.420;2022-07-10T00:59:25;18.05;59.57
68865;DHT22;55898;52.196;4.420;2022-07-10T01:01:52;17.99;59.96
68865;DHT22;55898;52.196;4.420;2022-07-10T01:04:18;17.96;60.51
68865;DHT22;55898;52.196;4.420;2022-07-10T01:06:43;17.99;60.42
68865;DHT22;55898;52.196;4.420;2022-07-10T01:09:09;17.96;59.93
68865;DHT22;55898;52.196;4.420;2022-07-10T01:11:37;18.02;60.26
68865;DHT22;55898;52.196;4.420;2022-07-10T01:14:04;18.05;59.61
68865;DHT22;55898;52.196;4.420;2022-07-10T01:16:30;18.06;59.55
68865;DHT22;55898;52.196;4.420;2022-07-10T01:18:57;18.06;59.99
68865;DHT22;55898;52.196;4.420;2022-07-10T01:21:32;18.02;60.00
68865;DHT22;55898;52.196;4.420;2022-07-10T01:24:00;17.93;60.55
68865;DHT22;55898;52.196;4.420;2022-07-10T01:26:28;17.93;60.82
68865;DHT22;55898;52.196;4.420;2022-07-10T01:28:54;17.93;60.83
68865;DHT22;55898;52.196;4.420;2022-07-10T01:31:24;17.93;60.84
68865;DHT22;55898;52.196;4.420;2022-07-10T01:33:50;17.96;61.01
68865;DHT22;55898;52.196;4.420;2022-07-10T01:36:17;17.99;61.22
68865;DHT22;55898;52.196;4.420;2022-07-10T01:38:43;17.98;60.86
68865;DHT22;55898;52.196;4.420;2022-07-10T01:41:09;17.99;61.03
68865;DHT22;55898;52.196;4.420;2022-07-10T01:43:38;17.98;61.14
68865;DHT22;55898;52.196;4.420;2022-07-10T01:46:08;17.98;60.97
68865;DHT22;55898;52.196;4.420;2022-07-10T01:48:39;17.95;61.13
68865;DHT22;55898;52.196;4.420;2022-07-10T01:51:05;17.95;61.41
68865;DHT22;55898;52.196;4.420;2022-07-10T01:53:31;17.98;61.56
68865;DHT22;55898;52.196;4.420;2022-07-10T01:55:57;17.99;61.78
68865;DHT22;55898;52.196;4.420;2022-07-10T01:58:23;17.92;61.89
68865;DHT22;55898;52.196;4.420;2022-07-10T02:00:48;17.86;62.40
68865;DHT22;55898;52.196;4.420;2022-07-10T02:03:14;17.83;62.61
68865;DHT22;55898;52.196;4.420;2022-07-10T02:05:58;17.83;62.75
68865;DHT22;55898;52.196;4.420;2022-07-10T02:08:24;17.82;62.58
68865;DHT22;55898;52.196;4.420;2022-07-10T02:10:49;17.81;62.91
68865;DHT22;55898;52.196;4.420;2022-07-10T02:13:15;17.81;62.85
68865;DHT22;55898;52.196;4.420;2022-07-10T02:15:42;17.79;62.74
68865;DHT22;55898;52.196;4.420;2022-07-10T02:18:08;17.79;61.69
68865;DHT22;55898;52.196;4.420;2022-07-10T02:20:33;17.82;62.13
68865;DHT22;55898;52.196;4.420;2022-07-10T02:23:00;17.83;62.31
68865;DHT22;55898;52.196;4.420;2022-07-10T02:25:26;17.86;62.31
68865;DHT22;55898;52.196;4.420;2022-07-10T02:27:51;17.82;62.16
68865;DHT22;55898;52.196;4.420;2022-07-10T02:30:18;17.83;62.50
68865;DHT22;55898;52.196;4.420;2022-07-10T02:32:43;17.85;62.57
68865;DHT22;55898;52.196;4.420;2022-07-10T02:35:09;17.83;62.78
68865;DHT22;55898;52.196;4.420;2022-07-10T02:37:34;17.85;62.67
68865;DHT22;55898;52.196;4.420;2022-07-10T02:40:00;17.83;63.15
68865;DHT22;55898;52.196;4.420;2022-07-10T02:42:25;17.85;63.27
68865;DHT22;55898;52.196;4.420;2022-07-10T02:44:50;17.85;62.92
68865;DHT22;55898;52.196;4.420;2022-07-10T02:47:16;17.89;62.95
68865;DHT22;55898;52.196;4.420;2022-07-10T02:49:41;17.90;62.64
68865;DHT22;55898;52.196;4.420;2022-07-10T02:52:07;17.92;62.12
68865;DHT22;55898;52.196;4.420;2022-07-10T02:54:32;17.90;61.65
68865;DHT22;55898;52.196;4.420;2022-07-10T02:56:58;17.95;61.29
68865;DHT22;55898;52.196;4.420;2022-07-10T02:59:23;17.98;61.53
68865;DHT22;55898;52.196;4.420;2022-07-10T03:01:49;17.96;61.35
68865;DHT22;55898;52.196;4.420;2022-07-10T03:04:14;18.00;61.61
68865;DHT22;55898;52.196;4.420;2022-07-10T03:06:40;18.00;62.02
68865;DHT22;55898;52.196;4.420;2022-07-10T03:09:05;17.99;62.44
68865;DHT22;55898;52.196;4.420;2022-07-10T03:11:31;17.99;62.59
68865;DHT22;55898;52.196;4.420;2022-07-10T03:13:56;17.99;62.41
68865;DHT22;55898;52.196;4.420;2022-07-10T03:16:22;18.00;62.24
68865;DHT22;55898;52.196;4.420;2022-07-10T03:18:47;18.02;62.51
68865;DHT22;55898;52.196;4.420;2022-07-10T03:21:13;18.06;62.22
68865;DHT22;55898;52.196;4.420;2022-07-10T03:23:38;18.06;61.95
68865;DHT22;55898;52.196;4.420;2022-07-10T03:26:07;18.06;61.73
68865;DHT22;55898;52.196;4.420;2022-07-10T03:28:33;18.02;61.71
68865;DHT22;55898;52.196;4.420;2022-07-10T03:30:58;18.00;61.75
68865;DHT22;55898;52.196;4.420;2022-07-10T03:33:24;18.05;61.75
68865;DHT22;55898;52.196;4.420;2022-07-10T03:35:49;18.03;61.54
68865;DHT22;55898;52.196;4.420;2022-07-10T03:38:15;17.95;62.32
68865;DHT22;55898;52.196;4.420;2022-07-10T03:40:40;17.93;62.60
68865;DHT22;55898;52.196;4.420;2022-07-10T03:43:06;17.99;62.92
68865;DHT22;55898;52.196;4.420;2022-07-10T03:45:32;17.98;62.77
68865;DHT22;55898;52.196;4.420;2022-07-10T03:47:57;18.05;62.35
68865;DHT22;55898;52.196;4.420;2022-07-10T03:50:23;18.03;62.33
68865;DHT22;55898;52.196;4.420;2022-07-10T03:52:48;18.09;62.59
68865;DHT22;55898;52.196;4.420;2022-07-10T03:55:14;18.06;62.53
68865;DHT22;55898;52.196;4.420;2022-07-10T03:57:39;18.12;62.39
68865;DHT22;55898;52.196;4.420;2022-07-10T04:00:21;18.10;62.93
68865;DHT22;55898;52.196;4.420;2022-07-10T04:02:48;18.16;62.89
68865;DHT22;55898;52.196;4.420;2022-07-10T04:05:18;18.19;62.36
68865;DHT22;55898;52.196;4.420;2022-07-10T04:07:44;18.17;62.12
68865;DHT22;55898;52.196;4.420;2022-07-10T04:10:09;18.20;61.95
68865;DHT22;55898;52.196;4.420;2022-07-10T04:12:35;18.23;62.12
68865;DHT22;55898;52.196;4.420;2022-07-10T04:15:00;18.22;62.37
68865;DHT22;55898;52.196;4.420;2022-07-10T04:17:26;18.25;62.83
68865;DHT22;55898;52.196;4.420;2022-07-10T04:19:51;18.29;63.19
68865;DHT22;55898;52.196;4.420;2022-07-10T04:22:17;18.30;62.81
68865;DHT22;55898;52.196;4.420;2022-07-10T04:24:42;18.32;62.78
68865;DHT22;55898;52.196;4.420;2022-07-10T04:27:08;18.36;62.64
68865;DHT22;55898;52.196;4.420;2022-07-10T04:29:33;18.33;63.18
68865;DHT22;55898;52.196;4.420;2022-07-10T04:31:59;18.36;62.92
68865;DHT22;55898;52.196;4.420;2022-07-10T04:34:24;18.41;62.51
68865;DHT22;55898;52.196;4.420;2022-07-10T04:36:50;18.40;62.95
68865;DHT22;55898;52.196;4.420;2022-07-10T04:39:15;18.41;62.11
68865;DHT22;55898;52.196;4.420;2022-07-10T04:41:41;18.43;62.38
68865;DHT22;55898;52.196;4.420;2022-07-10T04:44:06;18.41;62.82
68865;DHT22;55898;52.196;4.420;2022-07-10T04:46:32;18.44;63.02
68865;DHT22;55898;52.196;4.420;2022-07-10T04:48:57;18.41;63.02
68865;DHT22;55898;52.196;4.420;2022-07-10T04:51:23;18.36;62.57
68865;DHT22;55898;52.196;4.420;2022-07-10T04:53:49;18.33;63.15
68865;DHT22;55898;52.196;4.420;2022-07-10T04:56:15;18.33;63.23
68865;DHT22;55898;52.196;4.420;2022-07-10T04:58:40;18.34;63.52
68865;DHT22;55898;52.196;4.420;2022-07-10T05:01:06;18.34;63.53
68865;DHT22;55898;52.196;4.420;2022-07-10T05:03:31;18.38;64.14
68865;DHT22;55898;52.196;4.420;2022-07-10T05:05:57;18.43;63.98
68865;DHT22;55898;52.196;4.420;2022-07-10T05:08:22;18.47;63.65
68865;DHT22;55898;52.196;4.420;2022-07-10T05:10:48;18.50;63.04
68865;DHT22;55898;52.196;4.420;2022-07-10T05:13:13;18.51;62.87
68865;DHT22;55898;52.196;4.420;2022-07-10T05:15:39;18.47;62.37
68865;DHT22;55898;52.196;4.420;2022-07-10T05:18:05;18.48;62.82
68865;DHT22;55898;52.196;4.420;2022-07-10T05:20:30;18.46;63.23
68865;DHT22;55898;52.196;4.420;2022-07-10T05:22:56;18.50;62.84
68865;DHT22;55898;52.196;4.420;2022-07-10T05:25:22;18.53;62.98
68865;DHT22;55898;52.196;4.420;2022-07-10T05:27:48;18.51;63.46
68865;DHT22;55898;52.196;4.420;2022-07-10T05:30:13;18.57;63.67
68865;DHT22;55898;52.196;4.420;2022-07-10T05:32:46;18.58;62.82
68865;DHT22;55898;52.196;4.420;2022-07-10T05:35:13;18.54;62.70
68865;DHT22;55898;52.196;4.420;2022-07-10T05:37:40;18.53;63.14
68865;DHT22;55898;52.196;4.420;2022-07-10T05:40:07;18.50;62.74
68865;DHT22;55898;52.196;4.420;2022-07-10T05:42:34;18.48;62.78
68865;DHT22;55898;52.196;4.420;2022-07-10T05:44:59;18.47;63.46
68865;DHT22;55898;52.196;4.420;2022-07-10T05:47:25;18.47;63.60
68865;DHT22;55898;52.196;4.420;2022-07-10T05:49:50;18.56;62.80
68865;DHT22;55898;52.196;4.420;2022-07-10T05:52:16;18.63;63.00
68865;DHT22;55898;52.196;4.420;2022-07-10T05:54:41;18.63;62.47
68865;DHT22;55898;52.196;4.420;2022-07-10T05:57:07;18.69;62.57
68865;DHT22;55898;52.196;4.420;2022-07-10T05:59:33;18.74;62.83
68865;DHT22;55898;52.196;4.420;2022-07-10T06:02:03;18.72;63.05
68865;DHT22;55898;52.196;4.420;2022-07-10T06:04:28;18.81;63.35
68865;DHT22;55898;52.196;4.420;2022-07-10T06:06:54;18.87;63.40
68865;DHT22;55898;52.196;4.420;2022-07-10T06:09:19;18.87;63.88
68865;DHT22;55898;52.196;4.420;2022-07-10T06:11:45;18.95;62.64
68865;DHT22;55898;52.196;4.420;2022-07-10T06:14:13;19.02;62.58
68865;DHT22;55898;52.196;4.420;2022-07-10T06:16:39;19.02;62.51
68865;DHT22;55898;52.196;4.420;2022-07-10T06:19:05;18.99;62.73
68865;DHT22;55898;52.196;4.420;2022-07-10T06:21:31;19.04;62.95
68865;DHT22;55898;52.196;4.420;2022-07-10T06:23:57;19.11;62.70
68865;DHT22;55898;52.196;4.420;2022-07-10T06:26:23;19.16;63.29
68865;DHT22;55898;52.196;4.420;2022-07-10T06:28:48;19.23;62.51
68865;DHT22;55898;52.196;4.420;2022-07-10T06:31:14;19.22;63.10
68865;DHT22;55898;52.196;4.420;2022-07-10T06:33:39;19.19;62.30
68865;DHT22;55898;52.196;4.420;2022-07-10T06:36:05;19.20;62.50
68865;DHT22;55898;52.196;4.420;2022-07-10T06:38:31;19.26;62.96
68865;DHT22;55898;52.196;4.420;2022-07-10T06:40:56;19.33;62.82
68865;DHT22;55898;52.196;4.420;2022-07-10T06:43:22;19.40;62.64
68865;DHT22;55898;52.196;4.420;2022-07-10T06:45:48;19.37;62.24
68865;DHT22;55898;52.196;4.420;2022-07-10T06:48:14;19.32;62.67
68865;DHT22;55898;52.196;4.420;2022-07-10T06:50:41;19.32;63.05
68865;DHT22;55898;52.196;4.420;2022-07-10T06:53:07;19.47;62.63
68865;DHT22;55898;52.196;4.420;2022-07-10T06:55:33;19.56;62.43
68865;DHT22;55898;52.196;4.420;2022-07-10T06:57:59;19.62;62.04
68865;DHT22;55898;52.196;4.420;2022-07-10T07:00:25;19.71;61.99
68865;DHT22;55898;52.196;4.420;2022-07-10T07:02:51;19.71;61.46
68865;DHT22;55898;52.196;4.420;2022-07-10T07:05:17;19.78;61.57
68865;DHT22;55898;52.196;4.420;2022-07-10T07:07:43;19.85;61.40
68865;DHT22;55898;52.196;4.420;2022-07-10T07:10:10;19.81;60.62
68865;DHT22;55898;52.196;4.420;2022-07-10T07:12:35;19.88;61.35
68865;DHT22;55898;52.196;4.420;2022-07-10T07:15:02;19.95;60.49
68865;DHT22;55898;52.196;4.420;2022-07-10T07:17:27;20.00;60.85
68865;DHT22;55898;52.196;4.420;2022-07-10T07:20:00;20.07;60.02
68865;DHT22;55898;52.196;4.420;2022-07-10T07:22:45;20.11;60.32
68865;DHT22;55898;52.196;4.420;2022-07-10T07:25:40;20.03;60.65
68865;DHT22;55898;52.196;4.420;2022-07-10T07:28:12;19.95;61.25
68865;DHT22;55898;52.196;4.420;2022-07-10T07:30:41;19.98;60.41
68865;DHT22;55898;52.196;4.420;2022-07-10T07:33:07;19.93;60.41
68865;DHT22;55898;52.196;4.420;2022-07-10T07:35:33;19.98;60.27
68865;DHT22;55898;52.196;4.420;2022-07-10T07:37:58;20.05;60.44
68865;DHT22;55898;52.196;4.420;2022-07-10T07:40:24;20.22;61.12
68865;DHT22;55898;52.196;4.420;2022-07-10T07:42:51;20.26;60.14
68865;DHT22;55898;52.196;4.420;2022-07-10T07:45:19;20.26;59.19
68865;DHT22;55898;52.196;4.420;2022-07-10T07:47:57;20.25;58.57
68865;DHT22;55898;52.196;4.420;2022-07-10T07:50:26;20.18;59.29
68865;DHT22;55898;52.196;4.420;2022-07-10T07:52:53;20.17;60.38
68865;DHT22;55898;52.196;4.420;2022-07-10T07:55:19;20.25;59.82
68865;DHT22;55898;52.196;4.420;2022-07-10T07:57:46;20.26;59.33
68865;DHT22;55898;52.196;4.420;2022-07-10T08:00:13;20.31;58.73
68865;DHT22;55898;52.196;4.420;2022-07-10T08:02:39;20.31;59.28
68865;DHT22;55898;52.196;4.420;2022-07-10T08:05:06;20.33;58.55
68865;DHT22;55898;52.196;4.420;2022-07-10T08:10:00;20.63;58.51
68865;DHT22;55898;52.196;4.420;2022-07-10T08:12:25;20.75;58.18
68865;DHT22;55898;52.196;4.420;2022-07-10T08:14:50;20.80;57.31
68865;DHT22;55898;52.196;4.420;2022-07-10T08:17:16;20.76;57.56
68865;DHT22;55898;52.196;4.420;2022-07-10T08:19:41;20.83;58.00
68865;DHT22;55898;52.196;4.420;2022-07-10T08:22:07;20.91;57.35
68865;DHT22;55898;52.196;4.420;2022-07-10T08:24:32;21.07;57.31
68865;DHT22;55898;52.196;4.420;2022-07-10T08:26:58;21.11;56.46
68865;DHT22;55898;52.196;4.420;2022-07-10T08:29:23;21.10;56.50
68865;DHT22;55898;52.196;4.420;2022-07-10T08:31:49;21.21;57.00
68865;DHT22;55898;52.196;4.420;2022-07-10T08:34:14;21.32;56.51
68865;DHT22;55898;52.196;4.420;2022-07-10T08:36:39;21.41;55.01
68865;DHT22;55898;52.196;4.420;2022-07-10T08:39:05;21.26;55.16
68865;DHT22;55898;52.196;4.420;2022-07-10T08:41:31;21.18;56.46
68865;DHT22;55898;52.196;4.420;2022-07-10T08:43:57;21.21;55.88
68865;DHT22;55898;52.196;4.420;2022-07-10T08:46:23;21.30;56.55
68865;DHT22;55898;52.196;4.420;2022-07-10T08:48:53;21.27;54.87
68865;DHT22;55898;52.196;4.420;2022-07-10T08:51:36;21.23;54.96
68865;DHT22;55898;52.196;4.420;2022-07-10T08:54:04;21.26;54.57
68865;DHT22;55898;52.196;4.420;2022-07-10T08:56:31;21.20;53.27
68865;DHT22;55898;52.196;4.420;2022-07-10T08:58:57;21.08;53.96
68865;DHT22;55898;52.196;4.420;2022-07-10T09:01:24;21.07;53.93
68865;DHT22;55898;52.196;4.420;2022-07-10T09:03:50;21.17;54.77
68865;DHT22;55898;52.196;4.420;2022-07-10T09:06:18;21.41;53.72
68865;DHT22;55898;52.196;4.420;2022-07-10T09:08:58;21.57;53.84
68865;DHT22;55898;52.196;4.420;2022-07-10T09:11:24;21.55;53.34
68865;DHT22;55898;52.196;4.420;2022-07-10T09:14:00;21.52;54.82
68865;DHT22;55898;52.196;4.420;2022-07-10T09:18:55;21.66;54.87
68865;DHT22;55898;52.196;4.420;2022-07-10T09:21:22;21.81;53.91
68865;DHT22;55898;52.196;4.420;2022-07-10T09:23:48;21.76;53.76
68865;DHT22;55898;52.196;4.420;2022-07-10T09:26:15;21.83;54.52
68865;DHT22;55898;52.196;4.420;2022-07-10T09:28:41;21.95;54.46
68865;DHT22;55898;52.196;4.420;2022-07-10T09:31:06;22.02;52.90
68865;DHT22;55898;52.196;4.420;2022-07-10T09:33:32;22.07;53.12
68865;DHT22;55898;52.196;4.420;2022-07-10T09:36:07;22.16;53.34
68865;DHT22;55898;52.196;4.420;2022-07-10T09:43:51;22.48;54.80
68865;DHT22;55898;52.196;4.420;2022-07-10T09:46:18;22.65;54.35
68865;DHT22;55898;52.196;4.420;2022-07-10T09:48:45;22.71;54.85
68865;DHT22;55898;52.196;4.420;2022-07-10T09:51:11;22.88;53.22
68865;DHT22;55898;52.196;4.420;2022-07-10T09:53:42;22.71;53.52
68865;DHT22;55898;52.196;4.420;2022-07-10T09:56:12;22.75;53.19
68865;DHT22;55898;52.196;4.420;2022-07-10T09:58:39;22.92;54.41
68865;DHT22;55898;52.196;4.420;2022-07-10T10:01:08;22.90;50.00
68865;DHT22;55898;52.196;4.420;2022-07-10T10:03:38;22.94;51.54
68865;DHT22;55898;52.196;4.420;2022-07-10T10:06:30;22.96;49.80
68865;DHT22;55898;52.196;4.420;2022-07-10T10:09:03;22.87;48.90
68865;DHT22;55898;52.196;4.420;2022-07-10T10:11:32;22.87;50.43
68865;DHT22;55898;52.196;4.420;2022-07-10T10:14:00;22.98;49.15
68865;DHT22;55898;52.196;4.420;2022-07-10T10:16:27;23.06;48.67
68865;DHT22;55898;52.196;4.420;2022-07-10T10:18:55;23.05;49.13
68865;DHT22;55898;52.196;4.420;2022-07-10T10:21:39;23.25;48.36
68865;DHT22;55898;52.196;4.420;2022-07-10T10:24:06;23.25;49.33
68865;DHT22;55898;52.196;4.420;2022-07-10T10:26:32;23.30;48.68
68865;DHT22;55898;52.196;4.420;2022-07-10T10:29:00;23.45;49.04
68865;DHT22;55898;52.196;4.420;2022-07-10T10:31:28;23.54;49.47
68865;DHT22;55898;52.196;4.420;2022-07-10T10:33:55;23.46;48.93
68865;DHT22;55898;52.196;4.420;2022-07-10T10:39:12;23.60;47.75
68865;DHT22;55898;52.196;4.420;2022-07-10T10:41:49;23.63;48.60
68865;DHT22;55898;52.196;4.420;2022-07-10T10:49:21;23.64;48.45
68865;DHT22;55898;52.196;4.420;2022-07-10T10:54:31;23.83;47.61
68865;DHT22;55898;52.196;4.420;2022-07-10T10:57:14;23.90;47.52
68865;DHT22;55898;52.196;4.420;2022-07-10T10:59:51;24.01;49.39
68865;DHT22;55898;52.196;4.420;2022-07-10T11:02:21;24.24;48.60
68865;DHT22;55898;52.196;4.420;2022-07-10T11:04:49;24.33;48.07
68865;DHT22;55898;52.196;4.420;2022-07-10T11:10:44;24.36;48.70
68865;DHT22;55898;52.196;4.420;2022-07-10T11:13:17;24.43;48.28
68865;DHT22;55898;52.196;4.420;2022-07-10T11:15:49;24.49;49.03
68865;DHT22;55898;52.196;4.420;2022-07-10T11:18:21;24.48;49.61
68865;DHT22;55898;52.196;4.420;2022-07-10T11:20:56;24.43;49.12
68865;DHT22;55898;52.196;4.420;2022-07-10T11:26:24;24.87;49.16
68865;DHT22;55898;52.196;4.420;2022-07-10T11:28:59;25.14;47.03
68865;DHT22;55898;52.196;4.420;2022-07-10T11:31:26;25.18;48.32
68865;DHT22;55898;52.196;4.420;2022-07-10T11:33:54;25.35;48.53
68865;DHT22;55898;52.196;4.420;2022-07-10T11:36:25;25.51;48.03
68865;DHT22;55898;52.196;4.420;2022-07-10T11:39:03;25.62;48.14
68865;DHT22;55898;52.196;4.420;2022-07-10T11:41:30;25.48;46.26
68865;DHT22;55898;52.196;4.420;2022-07-10T11:43:59;25.35;46.24
68865;DHT22;55898;52.196;4.420;2022-07-10T11:46:27;25.57;47.70
68865;DHT22;55898;52.196;4.420;2022-07-10T11:48:54;25.78;46.87
68865;DHT22;55898;52.196;4.420;2022-07-10T11:51:31;26.09;47.34
68865;DHT22;55898;52.196;4.420;2022-07-10T11:56:28;27.40;43.22
68865;DHT22;55898;52.196;4.420;2022-07-10T12:01:24;28.63;42.06
68865;DHT22;55898;52.196;4.420;2022-07-10T12:04:01;29.21;38.81
68865;DHT22;55898;52.196;4.420;2022-07-10T12:06:29;29.03;39.97
68865;DHT22;55898;52.196;4.420;2022-07-10T12:08:56;29.08;40.43
68865;DHT22;55898;52.196;4.420;2022-07-10T12:11:22;29.41;39.53
68865;DHT22;55898;52.196;4.420;2022-07-10T12:13:51;29.82;39.04
68865;DHT22;55898;52.196;4.420;2022-07-10T12:16:20;30.37;38.25
68865;DHT22;55898;52.196;4.420;2022-07-10T12:18:47;30.44;38.13
68865;DHT22;55898;52.196;4.420;2022-07-10T12:21:14;30.47;38.21
68865;DHT22;55898;52.196;4.420;2022-07-10T12:23:42;30.50;37.95
68865;DHT22;55898;52.196;4.420;2022-07-10T12:26:10;30.23;38.49
68865;DHT22;55898;52.196;4.420;2022-07-10T12:28:55;30.57;37.54
68865;DHT22;55898;52.196;4.420;2022-07-10T12:31:32;30.40;38.08
68865;DHT22;55898;52.196;4.420;2022-07-10T12:34:03;29.78;39.07
68865;DHT22;55898;52.196;4.420;2022-07-10T12:36:49;29.57;39.63
68865;DHT22;55898;52.196;4.420;2022-07-10T12:39:17;30.05;39.12
68865;DHT22;55898;52.196;4.420;2022-07-10T12:42:02;29.81;39.33
68865;DHT22;55898;52.196;4.420;2022-07-10T12:44:45;29.33;40.91
68865;DHT22;55898;52.196;4.420;2022-07-10T12:47:18;28.83;41.18
68865;DHT22;55898;52.196;4.420;2022-07-10T12:52:25;28.55;43.05
68865;DHT22;55898;52.196;4.420;2022-07-10T12:55:21;28.77;41.63
68865;DHT22;55898;52.196;4.420;2022-07-10T12:57:52;28.97;41.71
68865;DHT22;55898;52.196;4.420;2022-07-10T13:00:43;28.75;41.54
68865;DHT22;55898;52.196;4.420;2022-07-10T13:03:18;29.62;40.72
68865;DHT22;55898;52.196;4.420;2022-07-10T13:05:44;30.30;39.56
68865;DHT22;55898;52.196;4.420;2022-07-10T13:08:21;30.19;39.08
68865;DHT22;55898;52.196;4.420;2022-07-10T13:10:58;29.78;39.88
68865;DHT22;55898;52.196;4.420;2022-07-10T13:13:24;29.41;40.17
68865;DHT22;55898;52.196;4.420;2022-07-10T13:15:50;30.67;39.59
68865;DHT22;55898;52.196;4.420;2022-07-10T13:18:17;31.07;38.13
68865;DHT22;55898;52.196;4.420;2022-07-10T13:20:56;31.03;37.78
68865;DHT22;55898;52.196;4.420;2022-07-10T13:23:23;31.18;37.13
68865;DHT22;55898;52.196;4.420;2022-07-10T13:25:54;31.01;38.51
68865;DHT22;55898;52.196;4.420;2022-07-10T13:28:20;30.54;39.25
68865;DHT22;55898;52.196;4.420;2022-07-10T13:30:46;30.72;39.35
68865;DHT22;55898;52.196;4.420;2022-07-10T13:33:12;30.19;39.35
68865;DHT22;55898;52.196;4.420;2022-07-10T13:35:38;29.90;39.41
68865;DHT22;55898;52.196;4.420;2022-07-10T13:38:04;29.54;40.29
68865;DHT22;55898;52.196;4.420;2022-07-10T13:40:32;29.47;40.85
68865;DHT22;55898;52.196;4.420;2022-07-10T13:42:58;29.33;41.55
68865;DHT22;55898;52.196;4.420;2022-07-10T13:45:25;29.16;42.07
68865;DHT22;55898;52.196;4.420;2022-07-10T13:47:52;29.33;42.09
68865;DHT22;55898;52.196;4.420;2022-07-10T13:50:22;29.78;40.73
68865;DHT22;55898;52.196;4.420;2022-07-10T13:52:48;29.82;41.42
68865;DHT22;55898;52.196;4.420;2022-07-10T13:55:14;30.41;40.05
68865;DHT22;55898;52.196;4.420;2022-07-10T13:57:40;30.65;38.65
68865;DHT22;55898;52.196;4.420;2022-07-10T14:00:08;30.85;38.24
68865;DHT22;55898;52.196;4.420;2022-07-10T14:02:34;30.82;39.23
68865;DHT22;55898;52.196;4.420;2022-07-10T14:05:00;30.53;39.57
68865;DHT22;55898;52.196;4.420;2022-07-10T14:07:25;30.41;40.43
68865;DHT22;55898;52.196;4.420;2022-07-10T14:09:51;30.20;39.67
68865;DHT22;55898;52.196;4.420;2022-07-10T14:12:16;30.10;39.08
68865;DHT22;55898;52.196;4.420;2022-07-10T14:14:42;30.36;38.89
68865;DHT22;55898;52.196;4.420;2022-07-10T14:17:08;30.10;39.44
68865;DHT22;55898;52.196;4.420;2022-07-10T14:19:34;30.05;40.05
68865;DHT22;55898;52.196;4.420;2022-07-10T14:22:00;30.02;40.56
68865;DHT22;55898;52.196;4.420;2022-07-10T14:24:25;29.82;41.88
68865;DHT22;55898;52.196;4.420;2022-07-10T14:26:52;29.95;41.95
68865;DHT22;55898;52.196;4.420;2022-07-10T14:29:21;29.82;40.58
68865;DHT22;55898;52.196;4.420;2022-07-10T14:31:46;29.52;41.08
68865;DHT22;55898;52.196;4.420;2022-07-10T14:34:15;29.25;42.85
68865;DHT22;55898;52.196;4.420;2022-07-10T14:36:41;29.38;42.77
68865;DHT22;55898;52.196;4.420;2022-07-10T14:39:07;29.66;41.26
68865;DHT22;55898;52.196;4.420;2022-07-10T14:41:32;30.34;41.02
68865;DHT22;55898;52.196;4.420;2022-07-10T14:43:58;30.51;39.42
68865;DHT22;55898;52.196;4.420;2022-07-10T14:46:24;30.59;39.79
68865;DHT22;55898;52.196;4.420;2022-07-10T14:48:50;31.18;39.30
68865;DHT22;55898;52.196;4.420;2022-07-10T14:51:16;31.60;37.51
68865;DHT22;55898;52.196;4.420;2022-07-10T14:53:42;31.50;38.06
68865;DHT22;55898;52.196;4.420;2022-07-10T14:56:10;31.05;39.07
68865;DHT22;55898;52.196;4.420;2022-07-10T14:58:37;30.45;39.55
68865;DHT22;55898;52.196;4.420;2022-07-10T15:01:02;29.78;41.69
68865;DHT22;55898;52.196;4.420;2022-07-10T15:03:28;29.31;42.41
68865;DHT22;55898;52.196;4.420;2022-07-10T15:05:54;28.99;43.79
68865;DHT22;55898;52.196;4.420;2022-07-10T15:08:26;28.73;45.72
68865;DHT22;55898;52.196;4.420;2022-07-10T15:10:52;28.55;44.68
68865;DHT22;55898;52.196;4.420;2022-07-10T15:13:17;28.45;46.35
68865;DHT22;55898;52.196;4.420;2022-07-10T15:15:43;28.35;46.13
68865;DHT22;55898;52.196;4.420;2022-07-10T15:18:09;28.21;46.47
68865;DHT22;55898;52.196;4.420;2022-07-10T15:20:35;28.04;46.91
68865;DHT22;55898;52.196;4.420;2022-07-10T15:23:04;27.83;47.14
68865;DHT22;55898;52.196;4.420;2022-07-10T15:25:31;27.64;47.20
68865;DHT22;55898;52.196;4.420;2022-07-10T15:27:56;27.36;48.01
68865;DHT22;55898;52.196;4.420;2022-07-10T15:30:22;27.23;48.35
68865;DHT22;55898;52.196;4.420;2022-07-10T15:32:48;27.12;48.95
68865;DHT22;55898;52.196;4.420;2022-07-10T15:35:14;27.03;49.71
68865;DHT22;55898;52.196;4.420;2022-07-10T15:37:39;26.92;49.91
68865;DHT22;55898;52.196;4.420;2022-07-10T15:40:05;26.80;49.83
68865;DHT22;55898;52.196;4.420;2022-07-10T15:42:31;26.64;50.27
68865;DHT22;55898;52.196;4.420;2022-07-10T15:44:57;26.57;50.54
68865;DHT22;55898;52.196;4.420;2022-07-10T15:47:23;26.55;50.17
68865;DHT22;55898;52.196;4.420;2022-07-10T15:49:49;26.26;51.05
68865;DHT22;55898;52.196;4.420;2022-07-10T15:52:14;26.16;51.16
68865;DHT22;55898;52.196;4.420;2022-07-10T15:54:40;26.17;50.97
68865;DHT22;55898;52.196;4.420;2022-07-10T15:57:07;25.86;50.08
68865;DHT22;55898;52.196;4.420;2022-07-10T15:59:33;25.78;50.98
68865;DHT22;55898;52.196;4.420;2022-07-10T16:02:00;25.74;51.37
68865;DHT22;55898;52.196;4.420;2022-07-10T16:04:26;25.71;51.42
68865;DHT22;55898;52.196;4.420;2022-07-10T16:06:53;25.76;51.40